Time;durP1;ratioP1;P1;durP2;ratioP2;P2;SDS_P1;SDS_P2;PMS_P1;PMS_P2;Temp;Humidity;BMP_temperature;BMP_pressure;BME280_temperature;BME280_humidity;BME280_pressure;Samples;Min_cycle;Max_cycle;Signal;HPM_P1;HPM_P2
2023/01/24 00:02:20;;;;;;;14.40;12.90;;;6.20;43.70;;;;;;10520029;28;20227;-73
2023/01/24 00:07:24;;;;;;;14.87;13.27;;;6.20;43.70;;;;;;10523521;28;20233;-73
2023/01/24 00:12:27;;;;;;;13.73;12.33;;;6.20;43.70;;;;;;10529425;28;20236;-76
2023/01/24 00:17:31;;;;;;;14.70;13.07;;;6.20;43.70;;;;;;10530104;28;20386;-76
2023/01/24 00:22:34;;;;;;;14.07;12.57;;;6.20;43.70;;;;;;10539725;28;20238;-76
2023/01/24 00:27:37;;;;;;;13.83;12.43;;;6.20;43.70;;;;;;10538085;28;20242;-76
2023/01/24 00:32:42;;;;;;;13.43;12.07;;;6.20;43.70;;;;;;10555277;28;20231;-76
2023/01/24 00:37:45;;;;;;;14.23;12.73;;;6.20;43.70;;;;;;10545521;28;20235;-76
2023/01/24 00:42:48;;;;;;;14.23;12.63;;;6.20;43.70;;;;;;10538175;28;20239;-76
2023/01/24 00:47:53;;;;;;;14.70;12.57;;;6.20;43.70;;;;;;10538350;28;20239;-76
2023/01/24 00:52:56;;;;;;;13.23;11.83;;;6.20;43.70;;;;;;10543054;28;20239;-76
2023/01/24 00:57:59;;;;;;;13.87;12.37;;;6.20;43.70;;;;;;10529579;28;20219;-77
2023/01/24 01:03:04;;;;;;;14.47;13.03;;;6.20;43.70;;;;;;10526276;28;20249;-75
2023/01/24 01:08:07;;;;;;;13.17;11.77;;;6.20;43.90;;;;;;10521217;28;20802;-74
2023/01/24 01:13:13;;;;;;;13.70;12.20;;;6.20;43.70;;;;;;10523702;28;20215;-75
2023/01/24 01:18:17;;;;;;;14.03;12.00;;;6.20;43.90;;;;;;10516918;28;20219;-74
2023/01/24 01:23:20;;;;;;;13.40;12.00;;;6.20;43.90;;;;;;10521971;28;20292;-75
2023/01/24 01:28:24;;;;;;;13.03;11.63;;;6.20;43.80;;;;;;10512747;28;20240;-75
2023/01/24 01:33:28;;;;;;;12.90;11.60;;;6.20;43.80;;;;;;10522246;28;20790;-75
2023/01/24 01:38:33;;;;;;;14.27;12.77;;;6.20;44.00;;;;;;10519423;28;20232;-75
2023/01/24 01:43:36;;;;;;;13.67;12.20;;;6.20;44.10;;;;;;10516069;28;20246;-75
2023/01/24 01:48:44;;;;;;;13.60;12.20;;;6.20;43.90;;;;;;10513868;28;20329;-75
2023/01/24 01:53:50;;;;;;;13.80;12.40;;;6.20;44.10;;;;;;10521225;28;20236;-75
2023/01/24 01:58:57;;;;;;;13.67;12.27;;;6.20;43.80;;;;;;10508713;28;20245;-75
2023/01/24 02:04:07;;;;;;;12.90;11.60;;;6.20;43.90;;;;;;10517743;28;20236;-75
2023/01/24 02:09:11;;;;;;;13.03;11.63;;;6.20;44.30;;;;;;10517115;28;20232;-75
2023/01/24 02:19:51;;;;;;;13.50;12.00;;;6.30;44.10;;;;;;10518843;28;20231;-75
2023/01/24 02:25:04;;;;;;;13.20;11.80;;;6.30;44.30;;;;;;10517000;28;20242;-75
2023/01/24 02:30:10;;;;;;;12.70;11.40;;;6.30;44.20;;;;;;10520410;28;20235;-75
2023/01/24 02:35:28;;;;;;;13.07;11.20;;;6.30;44.10;;;;;;10512611;28;20242;-75
2023/01/24 02:40:32;;;;;;;13.00;11.60;;;6.30;44.20;;;;;;10507153;28;20236;-74
2023/01/24 02:45:37;;;;;;;12.90;11.60;;;6.30;43.80;;;;;;10516526;28;20732;-74
2023/01/24 03:01:25;;;;;;;12.00;10.50;;;6.30;43.80;;;;;;10517770;28;20224;-73
2023/01/24 03:06:28;;;;;;;12.47;11.17;;;6.30;43.80;;;;;;10514355;28;20639;-72
2023/01/24 03:11:32;;;;;;;11.30;10.17;;;6.30;43.80;;;;;;10513130;28;20251;-73
2023/01/24 03:43:26;;;;;;;10.30;9.20;;;6.20;43.80;;;;;;10473432;28;20293;-72
2023/01/24 03:48:36;;;;;;;10.13;9.00;;;6.20;43.80;;;;;;10507625;28;20240;-72
2023/01/24 03:53:39;;;;;;;10.23;9.13;;;6.20;43.90;;;;;;10512154;28;20269;-72
2023/01/24 03:58:42;;;;;;;9.50;8.60;;;6.20;43.80;;;;;;10519029;28;20240;-73
2023/01/24 04:03:47;;;;;;;9.50;8.50;;;6.20;43.90;;;;;;10509834;28;20658;-72
2023/01/24 04:08:50;;;;;;;9.90;8.90;;;6.20;44.00;;;;;;10520159;28;20238;-73
2023/01/24 04:13:53;;;;;;;9.57;8.57;;;6.20;43.90;;;;;;10515450;28;20250;-72
2023/01/24 04:18:57;;;;;;;10.40;8.90;;;6.20;43.80;;;;;;10521328;28;20233;-72
2023/01/24 04:24:00;;;;;;;8.40;7.50;;;6.30;44.00;;;;;;10516243;28;20810;-72
2023/01/24 04:29:04;;;;;;;8.30;7.33;;;6.30;43.90;;;;;;10516631;28;20605;-74
2023/01/24 04:34:08;;;;;;;8.30;7.50;;;6.30;43.80;;;;;;10516453;28;20236;-74
2023/01/24 04:39:12;;;;;;;8.03;7.23;;;6.30;43.90;;;;;;10533235;28;20652;-74
2023/01/24 04:44:15;;;;;;;8.90;8.00;;;6.30;43.90;;;;;;10514215;28;20235;-74
2023/01/24 04:49:19;;;;;;;8.00;7.20;;;6.30;43.90;;;;;;10524775;28;20232;-74
2023/01/24 04:54:22;;;;;;;8.20;7.40;;;6.30;43.80;;;;;;10517129;28;20644;-73
2023/01/24 04:59:25;;;;;;;8.87;7.97;;;6.40;43.90;;;;;;10530767;28;20232;-75
2023/01/24 05:04:30;;;;;;;8.37;7.57;;;6.40;43.90;;;;;;10534509;28;20240;-75
2023/01/24 05:09:33;;;;;;;7.77;7.03;;;6.40;43.90;;;;;;10530706;28;20731;-75
2023/01/24 05:14:36;;;;;;;7.77;6.80;;;6.40;43.90;;;;;;10547540;28;20230;-75
2023/01/24 05:19:41;;;;;;;7.87;7.07;;;6.40;43.90;;;;;;10527086;28;20237;-76
2023/01/24 05:24:44;;;;;;;7.73;6.93;;;6.40;43.90;;;;;;10531743;28;20262;-75
2023/01/24 05:29:47;;;;;;;8.20;7.20;;;6.40;43.90;;;;;;10532070;28;20243;-76
2023/01/24 05:34:51;;;;;;;7.80;7.10;;;6.40;43.90;;;;;;10517770;28;20309;-75
2023/01/24 05:39:54;;;;;;;8.10;7.23;;;6.40;43.90;;;;;;10536151;28;20239;-75
2023/01/24 05:44:58;;;;;;;7.37;6.67;;;6.40;43.90;;;;;;10539956;28;20219;-75
2023/01/24 05:50:02;;;;;;;7.00;6.30;;;6.40;43.90;;;;;;10529836;28;20231;-75
2023/01/24 05:55:06;;;;;;;7.10;6.30;;;6.40;43.90;;;;;;10533159;28;20239;-74
2023/01/24 06:00:11;;;;;;;8.23;7.43;;;6.40;43.90;;;;;;10522659;28;20621;-75
2023/01/24 06:05:16;;;;;;;6.93;6.23;;;6.40;43.90;;;;;;10526408;28;20239;-72
2023/01/24 06:10:19;;;;;;;7.23;6.53;;;6.40;43.90;;;;;;10517613;28;20703;-73
2023/01/24 06:15:22;;;;;;;6.60;6.00;;;6.40;43.90;;;;;;10514736;28;20247;-73
2023/01/24 06:20:28;;;;;;;7.60;6.27;;;6.30;43.80;;;;;;10519641;28;20653;-70
2023/01/24 06:25:31;;;;;;;6.93;6.23;;;6.30;43.90;;;;;;10516792;28;20227;-70
2023/01/24 06:30:35;;;;;;;6.87;6.17;;;6.30;43.90;;;;;;10511868;28;20227;-70
2023/01/24 06:35:48;;;;;;;6.77;6.07;;;6.30;43.80;;;;;;10516467;28;20254;-69
2023/01/24 06:40:56;;;;;;;7.00;6.30;;;6.20;43.70;;;;;;10509727;28;20232;-72
2023/01/24 06:45:59;;;;;;;6.57;5.97;;;6.20;43.80;;;;;;10516610;28;20576;-72
2023/01/24 06:51:04;;;;;;;6.87;6.17;;;6.20;43.70;;;;;;10516108;28;20280;-71
2023/01/24 06:56:08;;;;;;;6.73;6.03;;;6.20;43.70;;;;;;10521298;28;20231;-72
2023/01/24 07:01:11;;;;;;;6.57;5.63;;;6.20;43.70;;;;;;10520967;28;20590;-72
2023/01/24 07:06:16;;;;;;;6.77;6.07;;;6.20;43.70;;;;;;10520190;28;20614;-71
2023/01/24 07:11:19;;;;;;;6.53;5.93;;;6.20;43.70;;;;;;10502299;28;20239;-71
2023/01/24 07:16:22;;;;;;;6.53;5.93;;;6.20;43.70;;;;;;10511338;28;20277;-71
2023/01/24 07:21:27;;;;;;;6.57;5.97;;;6.10;43.70;;;;;;10514785;28;20231;-69
2023/01/24 07:26:31;;;;;;;6.87;6.00;;;6.10;43.80;;;;;;10505343;28;20987;-69
2023/01/24 07:31:34;;;;;;;6.93;6.23;;;6.10;43.70;;;;;;10512747;28;20285;-69
2023/01/24 07:36:41;;;;;;;6.23;5.70;;;6.20;43.70;;;;;;10502799;28;20227;-69
2023/01/24 07:41:45;;;;;;;6.73;6.13;;;6.10;43.80;;;;;;10509996;28;20236;-69
2023/01/24 07:46:48;;;;;;;7.10;6.40;;;6.10;43.80;;;;;;10511864;28;20240;-69
2023/01/24 07:51:53;;;;;;;7.07;6.10;;;6.10;43.70;;;;;;10519213;28;20315;-69
2023/01/24 07:56:56;;;;;;;6.70;6.00;;;6.20;43.90;;;;;;10517130;28;20706;-69
2023/01/24 08:01:59;;;;;;;6.17;5.57;;;6.20;43.70;;;;;;10519304;28;20669;-69
2023/01/24 08:07:20;;;;;;;6.53;5.93;;;6.20;43.80;;;;;;10519147;28;20594;-70
2023/01/24 08:12:23;;;;;;;6.57;5.87;;;6.20;43.90;;;;;;10514260;28;20285;-70
2023/01/24 08:17:26;;;;;;;6.73;6.13;;;6.20;43.70;;;;;;10522939;28;20244;-70
2023/01/24 08:22:31;;;;;;;6.23;5.63;;;6.20;43.90;;;;;;10520087;28;20231;-70
2023/01/24 08:27:34;;;;;;;6.90;6.23;;;6.20;44.00;;;;;;10523052;28;20761;-70
2023/01/24 08:32:37;;;;;;;6.07;5.47;;;6.20;43.80;;;;;;10520746;28;20244;-70
2023/01/24 08:37:42;;;;;;;6.80;6.10;;;6.20;43.90;;;;;;10520575;28;20365;-70
2023/01/24 08:42:45;;;;;;;6.43;5.83;;;6.30;44.10;;;;;;10523052;28;20992;-71
2023/01/24 08:47:52;;;;;;;6.97;6.27;;;6.20;44.10;;;;;;10517195;28;20605;-70
2023/01/24 08:52:57;;;;;;;6.80;6.20;;;6.30;44.60;;;;;;10511546;28;20228;-72
2023/01/24 08:58:01;;;;;;;7.43;6.43;;;6.30;44.30;;;;;;10520306;28;20223;-73
2023/01/24 09:03:04;;;;;;;6.73;6.13;;;6.40;44.20;;;;;;10521930;28;20227;-71
2023/01/24 09:08:09;;;;;;;6.70;6.10;;;6.40;44.20;;;;;;10519277;28;20278;-70
2023/01/24 09:13:12;;;;;;;6.43;5.83;;;6.40;44.20;;;;;;10518506;28;20634;-70
2023/01/24 09:18:16;;;;;;;7.67;6.30;;;6.50;44.20;;;;;;10516389;28;20239;-70
2023/01/24 09:23:21;;;;;;;6.87;6.27;;;6.50;44.30;;;;;;10517352;28;20357;-71
2023/01/24 09:28:24;;;;;;;7.07;6.37;;;6.50;44.20;;;;;;10524578;28;20228;-71
2023/01/24 09:33:27;;;;;;;6.47;5.87;;;6.50;44.10;;;;;;10513941;28;20252;-72
2023/01/24 09:38:34;;;;;;;7.10;6.43;;;6.60;44.20;;;;;;10522631;28;20265;-72
2023/01/24 09:43:44;;;;;;;6.87;6.27;;;6.60;44.30;;;;;;10522546;28;20237;-71
2023/01/24 09:48:50;;;;;;;6.60;5.93;;;6.60;44.30;;;;;;10515213;28;20216;-70
2023/01/24 09:53:56;;;;;;;6.90;6.27;;;6.60;44.10;;;;;;10518506;28;20246;-70
2023/01/24 09:59:11;;;;;;;6.87;6.27;;;6.60;44.50;;;;;;10517519;28;20231;-70
2023/01/24 10:04:20;;;;;;;8.63;6.63;;;6.70;44.60;;;;;;10512623;28;20243;-70
2023/01/24 10:09:32;;;;;;;7.00;6.30;;;6.70;44.40;;;;;;10511930;28;20238;-70
2023/01/24 10:14:52;;;;;;;6.53;5.93;;;6.70;44.30;;;;;;10513095;28;20273;-70
2023/01/24 10:20:13;;;;;;;6.43;5.83;;;6.80;44.20;;;;;;10513345;28;20223;-70
2023/01/24 10:25:23;;;;;;;6.60;6.00;;;6.90;44.40;;;;;;10510041;28;21034;-70
2023/01/24 10:30:34;;;;;;;7.00;6.23;;;6.90;44.30;;;;;;10507238;28;20235;-70
2023/01/24 10:35:44;;;;;;;6.77;6.17;;;6.90;44.30;;;;;;10508307;28;20976;-70
2023/01/24 10:40:54;;;;;;;6.73;6.07;;;7.00;44.40;;;;;;10515305;28;20227;-70
2023/01/24 10:46:12;;;;;;;7.43;6.70;;;7.00;44.40;;;;;;10510298;28;20860;-70
2023/01/24 10:51:17;;;;;;;6.57;5.97;;;7.10;44.50;;;;;;10513134;28;20228;-70
2023/01/24 10:56:22;;;;;;;6.80;6.20;;;7.10;44.40;;;;;;10499425;28;20224;-70
2023/01/24 11:01:35;;;;;;;7.40;6.60;;;7.10;44.40;;;;;;10505044;28;20243;-70
2023/01/24 11:06:40;;;;;;;6.50;5.90;;;7.20;44.50;;;;;;10502476;28;20243;-70
2023/01/24 11:11:48;;;;;;;7.77;6.83;;;7.20;44.60;;;;;;10508804;28;20232;-70
2023/01/24 11:16:53;;;;;;;7.47;6.67;;;7.20;44.50;;;;;;10515601;28;20230;-70
2023/01/24 11:21:59;;;;;;;7.60;6.90;;;7.20;44.40;;;;;;10516491;28;20224;-70
2023/01/24 11:27:14;;;;;;;7.03;6.33;;;7.30;44.60;;;;;;10514335;28;20230;-70
2023/01/24 11:32:27;;;;;;;6.83;6.20;;;7.30;44.60;;;;;;10522054;28;20238;-70
2023/01/24 11:38:06;;;;;;;7.07;6.37;;;7.40;44.70;;;;;;10518519;28;20296;-70
2023/01/24 11:43:34;;;;;;;6.40;5.80;;;7.40;44.40;;;;;;10514861;28;20258;-70
2023/01/24 11:48:47;;;;;;;6.83;6.23;;;7.50;44.40;;;;;;10520712;28;20232;-70
2023/01/24 11:54:09;;;;;;;6.80;6.00;;;7.60;44.30;;;;;;10521592;28;20251;-70
2023/01/24 11:59:28;;;;;;;6.53;5.93;;;7.60;44.10;;;;;;10521127;28;20227;-70
2023/01/24 12:05:03;;;;;;;6.67;6.00;;;7.70;44.40;;;;;;10526016;28;20247;-72
2023/01/24 12:10:17;;;;;;;7.40;6.60;;;7.80;44.30;;;;;;10512342;28;20232;-70
2023/01/24 12:15:31;;;;;;;6.97;6.37;;;7.80;44.10;;;;;;10518536;28;20227;-72
2023/01/24 12:20:59;;;;;;;6.87;6.23;;;7.90;44.20;;;;;;10523810;28;20239;-71
2023/01/24 12:26:10;;;;;;;6.47;5.87;;;7.90;44.10;;;;;;10529765;28;20246;-69
2023/01/24 12:31:22;;;;;;;6.73;6.03;;;8.00;44.10;;;;;;10522441;28;20243;-70
2023/01/24 12:36:36;;;;;;;7.10;6.50;;;8.10;44.10;;;;;;10519807;28;20236;-70
2023/01/24 12:41:39;;;;;;;6.93;6.27;;;8.10;44.10;;;;;;10517723;28;20239;-71
2023/01/24 12:47:02;;;;;;;7.13;6.53;;;8.20;44.20;;;;;;10515122;28;20243;-70
2023/01/24 12:52:13;;;;;;;7.73;6.43;;;8.20;44.10;;;;;;10510486;28;20278;-70
2023/01/24 12:57:23;;;;;;;7.07;6.43;;;8.30;44.20;;;;;;10515726;28;20227;-70
2023/01/24 13:02:48;;;;;;;7.57;6.87;;;8.40;43.90;;;;;;10518661;28;20829;-72
2023/01/24 13:08:03;;;;;;;8.67;7.87;;;8.40;43.70;;;;;;10516302;28;20254;-70
2023/01/24 13:13:14;;;;;;;8.83;7.93;;;8.40;43.60;;;;;;10520311;28;20696;-70
2023/01/24 13:18:34;;;;;;;7.93;7.20;;;8.40;43.80;;;;;;10519389;28;20235;-70
2023/01/24 13:24:02;;;;;;;8.90;8.10;;;8.30;43.50;;;;;;10521481;28;20730;-70
2023/01/24 13:29:26;;;;;;;8.37;7.67;;;8.30;43.50;;;;;;10530267;28;20357;-74
2023/01/24 13:34:33;;;;;;;8.13;7.30;;;8.40;43.80;;;;;;10530664;28;20247;-72
2023/01/24 13:39:39;;;;;;;8.43;7.63;;;8.40;43.80;;;;;;10532897;28;20230;-72
2023/01/24 13:44:43;;;;;;;8.70;7.90;;;8.40;43.70;;;;;;10520842;28;20269;-72
2023/01/24 13:50:19;;;;;;;8.33;7.53;;;8.40;43.70;;;;;;10514639;28;20227;-70
2023/01/24 13:55:59;;;;;;;8.17;7.37;;;8.40;43.40;;;;;;10525347;28;20698;-71
2023/01/24 14:01:03;;;;;;;7.87;7.17;;;8.40;43.40;;;;;;10522523;28;20224;-70
2023/01/24 14:06:12;;;;;;;7.97;7.17;;;8.40;43.50;;;;;;10503089;28;20269;-70
2023/01/24 14:11:52;;;;;;;8.50;7.70;;;8.30;43.40;;;;;;10413591;27;20567;-70
2023/01/24 14:17:20;;;;;;;7.83;7.13;;;8.30;43.60;;;;;;10351153;28;20237;-71
2023/01/24 14:22:32;;;;;;;6.80;6.20;;;8.30;43.60;;;;;;10379508;28;20230;-70
2023/01/24 14:27:46;;;;;;;7.90;6.57;;;8.30;43.40;;;;;;10376220;28;20311;-70
2023/01/24 14:32:52;;;;;;;7.07;6.47;;;8.30;43.70;;;;;;10379311;28;20232;-70
2023/01/24 14:38:12;;;;;;;7.37;6.67;;;8.30;43.50;;;;;;10374945;28;20226;-71
2023/01/24 14:43:17;;;;;;;7.23;6.60;;;8.20;43.10;;;;;;10382786;28;20221;-71
2023/01/24 14:48:24;;;;;;;8.10;7.30;;;8.20;43.40;;;;;;10386974;28;20512;-70
2023/01/24 14:53:30;;;;;;;7.43;6.80;;;8.20;43.40;;;;;;10388939;28;20261;-71
2023/01/24 14:58:35;;;;;;;8.27;7.40;;;8.10;43.30;;;;;;10378026;28;20611;-70
2023/01/24 15:03:38;;;;;;;8.40;7.70;;;8.10;43.30;;;;;;10382998;28;20230;-70
2023/01/24 15:08:41;;;;;;;8.10;7.40;;;8.10;43.40;;;;;;10380442;28;20726;-71
2023/01/24 15:13:49;;;;;;;9.13;8.30;;;8.00;43.30;;;;;;10381224;28;20765;-72
2023/01/24 15:18:54;;;;;;;9.47;8.57;;;8.00;43.30;;;;;;10388989;28;20241;-72
2023/01/24 15:23:58;;;;;;;9.17;8.27;;;8.00;43.40;;;;;;10361114;28;20233;-72
2023/01/24 15:29:40;;;;;;;9.53;8.63;;;7.90;43.30;;;;;;10368244;28;20308;-72
2023/01/24 15:34:44;;;;;;;9.53;8.57;;;7.90;43.20;;;;;;10366057;28;20284;-72
2023/01/24 15:39:57;;;;;;;9.57;8.67;;;7.80;43.30;;;;;;10360346;28;20292;-71
2023/01/24 15:45:02;;;;;;;9.43;8.53;;;7.80;43.10;;;;;;10354530;28;20227;-71
2023/01/24 15:55:36;;;;;;;10.73;9.67;;;7.70;43.00;;;;;;10353824;28;20241;-71
2023/01/24 16:00:49;;;;;;;10.13;9.13;;;7.70;43.20;;;;;;10355594;28;20721;-71
2023/01/24 16:05:53;;;;;;;10.83;9.80;;;7.70;43.20;;;;;;10364182;28;20736;-71
2023/01/24 16:10:58;;;;;;;10.30;9.30;;;7.70;43.20;;;;;;10367499;28;20245;-72
2023/01/24 16:16:06;;;;;;;10.40;9.40;;;7.60;43.10;;;;;;10358496;28;20234;-72
2023/01/24 16:21:10;;;;;;;10.60;9.47;;;7.60;43.10;;;;;;10351206;28;20281;-71
2023/01/24 16:26:22;;;;;;;11.50;9.40;;;7.60;43.10;;;;;;10351027;28;20239;-71
2023/01/24 16:31:26;;;;;;;10.37;9.37;;;7.50;43.10;;;;;;10346949;28;20234;-71
2023/01/24 16:36:29;;;;;;;10.97;9.87;;;7.50;43.20;;;;;;10351059;28;20230;-72
2023/01/24 16:41:33;;;;;;;10.63;9.53;;;7.40;43.10;;;;;;10358223;28;20222;-72
2023/01/24 16:46:38;;;;;;;10.63;9.53;;;7.40;43.20;;;;;;10355058;28;20249;-72
2023/01/24 16:51:43;;;;;;;11.50;10.30;;;7.40;43.20;;;;;;10354411;28;20236;-72
2023/01/24 16:56:47;;;;;;;14.80;9.93;;;7.40;43.20;;;;;;10355632;28;20241;-72
2023/01/24 17:01:52;;;;;;;11.10;9.80;;;7.40;43.30;;;;;;10366859;28;20237;-72
2023/01/24 17:07:00;;;;;;;10.77;9.70;;;7.30;43.20;;;;;;10360136;28;20258;-72
2023/01/24 17:12:04;;;;;;;11.03;9.97;;;7.30;43.20;;;;;;10357931;28;20226;-72
2023/01/24 17:17:18;;;;;;;10.77;9.67;;;7.30;43.20;;;;;;10351582;28;20306;-71
2023/01/24 17:22:21;;;;;;;10.93;9.90;;;7.30;43.40;;;;;;10363544;28;20226;-71
2023/01/24 17:27:24;;;;;;;11.03;9.93;;;7.30;43.40;;;;;;10354392;28;20227;-71
2023/01/24 17:32:28;;;;;;;11.80;10.40;;;7.30;44.00;;;;;;10359619;28;20238;-73
2023/01/24 17:37:32;;;;;;;11.87;10.67;;;7.30;43.70;;;;;;10360742;28;20375;-73
2023/01/24 17:42:35;;;;;;;12.23;11.03;;;7.30;43.40;;;;;;10355187;28;20268;-70
2023/01/24 17:47:40;;;;;;;11.90;10.70;;;7.20;43.30;;;;;;10356824;28;20235;-70
2023/01/24 17:52:43;;;;;;;11.90;10.63;;;7.20;43.30;;;;;;10359294;28;20226;-70
2023/01/24 17:57:46;;;;;;;11.77;10.57;;;7.10;43.30;;;;;;10353976;28;20238;-70
2023/01/24 18:02:50;;;;;;;11.47;10.37;;;7.10;43.30;;;;;;10355313;28;20223;-70
2023/01/24 18:07:54;;;;;;;12.47;11.20;;;7.00;43.40;;;;;;10354158;28;20235;-70
2023/01/24 18:12:57;;;;;;;11.53;10.33;;;7.00;43.40;;;;;;10349380;28;20253;-70
2023/01/24 18:18:02;;;;;;;11.53;10.43;;;6.90;43.40;;;;;;10348834;28;20222;-70
2023/01/24 18:23:05;;;;;;;12.23;11.03;;;6.90;43.40;;;;;;10363897;28;20227;-70
2023/01/24 18:28:08;;;;;;;11.83;10.70;;;6.80;43.40;;;;;;10353157;28;20232;-70
2023/01/24 18:33:13;;;;;;;11.80;10.63;;;6.80;43.40;;;;;;10341970;28;20242;-70
2023/01/24 18:38:16;;;;;;;11.73;10.27;;;6.80;43.70;;;;;;10353486;28;20883;-70
2023/01/24 18:43:19;;;;;;;12.87;11.57;;;6.70;43.70;;;;;;10352502;28;20238;-70
2023/01/24 18:48:23;;;;;;;12.57;11.27;;;6.70;43.70;;;;;;10362422;28;20241;-70
2023/01/24 18:53:26;;;;;;;13.83;12.47;;;6.70;43.90;;;;;;10352656;28;20352;-70
2023/01/24 18:58:31;;;;;;;13.40;11.90;;;6.60;43.70;;;;;;10363256;28;20227;-70
2023/01/24 19:03:36;;;;;;;12.93;11.73;;;6.60;44.00;;;;;;10354398;28;20234;-70
2023/01/24 19:08:39;;;;;;;13.17;11.83;;;6.60;44.00;;;;;;10356775;28;20238;-70
2023/01/24 19:14:03;;;;;;;13.53;11.63;;;6.50;43.90;;;;;;10356084;28;20226;-70
2023/01/24 19:19:12;;;;;;;13.57;12.27;;;6.50;43.90;;;;;;10357294;28;20280;-70
2023/01/24 19:24:15;;;;;;;13.80;12.23;;;6.50;44.00;;;;;;10358858;28;20353;-70
2023/01/24 19:29:18;;;;;;;14.67;12.77;;;6.50;43.90;;;;;;10364820;28;20234;-70
2023/01/24 19:34:23;;;;;;;13.33;12.03;;;6.50;43.90;;;;;;10362653;28;20345;-70
2023/01/24 19:39:26;;;;;;;13.23;11.90;;;6.50;43.90;;;;;;10357228;28;20242;-70
2023/01/24 19:44:29;;;;;;;13.27;11.97;;;6.50;44.00;;;;;;10361196;28;20222;-70
2023/01/24 19:49:34;;;;;;;14.13;12.70;;;6.50;44.60;;;;;;10362422;28;20237;-70
2023/01/24 19:54:37;;;;;;;13.87;12.03;;;6.50;44.00;;;;;;10356826;28;20239;-70
2023/01/24 19:59:40;;;;;;;14.27;12.70;;;6.50;43.90;;;;;;10362576;28;20585;-70
2023/01/24 20:04:45;;;;;;;14.73;12.27;;;6.40;43.90;;;;;;10356334;28;20233;-70
2023/01/24 20:09:54;;;;;;;12.60;11.23;;;6.40;44.10;;;;;;10354826;28;20223;-70
2023/01/24 20:14:57;;;;;;;13.57;12.17;;;6.50;44.00;;;;;;10352085;28;20261;-70
2023/01/24 20:20:02;;;;;;;13.27;11.87;;;6.50;44.10;;;;;;10353896;28;20229;-70
2023/01/24 20:25:06;;;;;;;14.00;12.60;;;6.50;44.30;;;;;;10355499;28;20241;-70
2023/01/24 20:30:21;;;;;;;12.93;11.60;;;6.50;44.20;;;;;;10357204;28;20230;-70
2023/01/24 20:35:26;;;;;;;14.63;12.67;;;6.50;44.10;;;;;;10360896;28;20257;-70
2023/01/24 20:40:29;;;;;;;13.43;12.03;;;6.50;44.40;;;;;;10353272;28;20230;-70
2023/01/24 20:45:36;;;;;;;14.77;13.27;;;6.40;44.10;;;;;;10353042;28;20241;-70
2023/01/24 20:50:40;;;;;;;13.90;12.27;;;6.40;44.40;;;;;;10360761;28;20230;-70
2023/01/24 20:55:45;;;;;;;14.00;12.57;;;6.40;44.30;;;;;;10353320;28;20242;-70
2023/01/24 21:00:48;;;;;;;14.17;12.67;;;6.40;44.30;;;;;;10361996;28;20317;-70
2023/01/24 21:05:53;;;;;;;14.73;12.93;;;6.40;44.30;;;;;;10352945;28;20241;-70
2023/01/24 21:10:57;;;;;;;13.80;12.33;;;6.30;44.40;;;;;;10360614;28;20244;-70
2023/01/24 21:16:06;;;;;;;15.23;13.57;;;6.40;44.40;;;;;;10352732;28;20230;-69
2023/01/24 21:21:11;;;;;;;14.63;12.73;;;6.40;44.80;;;;;;10358136;28;20218;-70
2023/01/24 21:26:15;;;;;;;14.07;12.27;;;6.30;44.60;;;;;;10355247;28;20617;-70
2023/01/24 21:31:21;;;;;;;14.07;12.27;;;6.30;44.40;;;;;;10353434;28;20241;-70
2023/01/24 21:36:31;;;;;;;14.43;12.10;;;6.30;44.60;;;;;;10348218;28;20241;-69
2023/01/24 21:41:56;;;;;;;16.17;12.67;;;6.30;44.60;;;;;;10355784;28;20901;-70
2023/01/24 21:47:00;;;;;;;14.23;12.83;;;6.30;44.40;;;;;;10346932;28;20250;-69
2023/01/24 21:52:05;;;;;;;14.90;12.90;;;6.30;44.50;;;;;;10359473;28;20226;-70
2023/01/24 22:02:35;;;;;;;14.63;12.13;;;6.30;44.80;;;;;;10354239;28;20329;-69
2023/01/24 22:07:39;;;;;;;16.17;14.13;;;6.30;44.70;;;;;;10357368;28;20332;-70
2023/01/24 22:12:43;;;;;;;16.57;13.53;;;6.30;44.90;;;;;;10361361;28;20234;-69
2023/01/24 22:17:46;;;;;;;15.57;13.83;;;6.30;44.70;;;;;;10353324;28;20233;-70
2023/01/24 22:23:05;;;;;;;13.83;12.43;;;6.30;44.70;;;;;;10355391;28;20232;-72
2023/01/24 22:28:16;;;;;;;14.73;13.17;;;6.30;45.20;;;;;;10357213;28;20236;-70
2023/01/24 22:33:19;;;;;;;14.97;13.40;;;6.30;45.10;;;;;;10364704;28;20698;-71
2023/01/24 22:38:25;;;;;;;15.30;13.70;;;6.30;44.90;;;;;;10361934;28;20587;-70
2023/01/24 22:43:29;;;;;;;16.47;13.50;;;6.30;45.10;;;;;;10357185;28;20226;-70
2023/01/24 22:48:32;;;;;;;15.97;14.27;;;6.30;44.80;;;;;;10367612;28;20233;-70
2023/01/24 22:53:36;;;;;;;15.23;13.63;;;6.30;44.80;;;;;;10364876;28;20234;-71
2023/01/24 22:58:40;;;;;;;15.60;13.97;;;6.30;44.90;;;;;;10361675;28;20234;-72
2023/01/24 23:03:43;;;;;;;16.37;14.23;;;6.30;44.80;;;;;;10367997;28;20249;-72
2023/01/24 23:08:49;;;;;;;16.00;14.20;;;6.40;44.90;;;;;;10352310;28;20237;-72
2023/01/24 23:24:53;;;;;;;15.90;14.00;;;6.30;45.30;;;;;;10361347;28;21158;-69
2023/01/24 23:30:17;;;;;;;15.80;12.93;;;6.40;45.10;;;;;;10360016;28;20327;-70
2023/01/24 23:35:20;;;;;;;16.90;13.87;;;6.40;45.30;;;;;;10361611;28;20231;-73
2023/01/24 23:40:24;;;;;;;16.97;14.67;;;6.40;44.90;;;;;;10358972;28;20226;-70
2023/01/24 23:45:27;;;;;;;16.03;14.03;;;6.40;45.00;;;;;;10360108;28;20626;-70
2023/01/24 23:50:31;;;;;;;16.10;14.20;;;6.40;44.80;;;;;;10368292;28;20839;-72
2023/01/24 23:55:35;;;;;;;17.27;14.37;;;6.40;44.80;;;;;;10376739;22;20598;-76
